Time;durP1;ratioP1;P1;durP2;ratioP2;P2;SDS_P1;SDS_P2;PMS_P1;PMS_P2;Temp;Humidity;BMP_temperature;BMP_pressure;BME280_temperature;BME280_humidity;BME280_pressure;Samples;Min_cycle;Max_cycle;Signal;HPM_P1;HPM_P2
2023/06/09 00:00:00;;;;;;;12.27;11.67;;;;;;;-145.94;48.97;75954.19;5116736;28;20621;-70
2023/06/09 00:02:29;;;;;;;11.97;11.57;;;;;;;-145.94;48.62;75952.13;5116951;28;20630;-71
2023/06/09 00:04:56;;;;;;;14.03;13.13;;;;;;;-145.94;48.79;75956.22;5116945;28;20202;-71
2023/06/09 00:07:23;;;;;;;12.43;11.63;;;;;;;-145.94;48.69;75952.13;5116680;28;20185;-71
2023/06/09 00:09:49;;;;;;;15.87;11.60;;;;;;;-145.94;49.04;75954.19;5116624;28;20628;-71
2023/06/09 00:12:16;;;;;;;12.53;11.93;;;;;;;-145.94;49.32;75962.34;5116598;28;20182;-71
2023/06/09 00:14:42;;;;;;;10.83;10.43;;;;;;;-145.94;49.26;75966.41;5115502;28;20235;-71
2023/06/09 00:17:09;;;;;;;12.37;11.53;;;;;;;-145.94;49.59;75960.28;5116320;28;20189;-71
2023/06/09 00:19:37;;;;;;;12.10;11.30;;;;;;;-145.94;49.84;75972.53;5116338;28;20288;-71
2023/06/09 00:22:05;;;;;;;13.33;12.40;;;;;;;-145.94;50.20;75970.47;5116407;28;20185;-71
2023/06/09 00:24:31;;;;;;;10.57;10.23;;;;;;;-145.94;50.25;75970.47;5098223;28;20247;-71
2023/06/09 00:26:58;;;;;;;12.43;11.43;;;;;;;-145.94;50.28;75974.56;5116250;28;20185;-71
2023/06/09 00:29:24;;;;;;;11.23;10.67;;;;;;;-145.94;50.29;75972.53;5097985;28;20231;-71
2023/06/09 00:31:51;;;;;;;11.33;10.73;;;;;;;-145.94;50.55;75972.53;5116416;28;20185;-71
2023/06/09 00:34:17;;;;;;;12.03;11.17;;;;;;;-145.94;50.85;75976.59;5097849;28;20193;-71
2023/06/09 00:36:44;;;;;;;11.70;10.57;;;;;;;-145.94;50.88;75976.59;5116262;28;20181;-71
2023/06/09 00:39:10;;;;;;;12.60;11.70;;;;;;;-145.94;51.30;75984.75;5116012;28;20216;-72
2023/06/09 00:41:39;;;;;;;12.47;11.00;;;;;;;-145.94;51.33;75992.91;5097709;28;20201;-72
2023/06/09 00:44:06;;;;;;;11.33;10.73;;;;;;;-145.94;51.36;75994.94;5115858;28;20216;-71
2023/06/09 00:46:34;;;;;;;10.93;10.20;;;;;;;-145.94;51.44;75997.00;5116447;28;20181;-71
2023/06/09 00:49:01;;;;;;;11.40;10.77;;;;;;;-145.94;51.52;76003.09;5115768;28;20574;-71
2023/06/09 00:51:28;;;;;;;9.83;9.33;;;;;;;-145.94;51.66;76005.16;5097558;28;20201;-71
2023/06/09 00:53:55;;;;;;;10.47;9.93;;;;;;;-145.94;51.76;76013.28;5116352;28;20165;-71
2023/06/09 00:56:23;;;;;;;9.47;9.13;;;;;;;-145.94;51.77;76015.34;5097393;28;20199;-71
2023/06/09 00:58:50;;;;;;;10.63;9.83;;;;;;;-145.94;51.87;76013.28;5097529;28;20694;-70
2023/06/09 01:01:17;;;;;;;11.13;10.40;;;;;;;-145.94;51.84;76019.41;5116154;28;20657;-71
2023/06/09 01:03:46;;;;;;;9.73;9.20;;;;;;;-145.94;51.98;76027.56;5097232;28;20638;-71
2023/06/09 01:06:39;;;;;;;11.63;10.47;;;;;;;-145.94;52.33;76039.81;5115779;28;20185;-71
2023/06/09 01:09:24;;;;;;;10.33;9.43;;;;;;;-145.94;52.44;76045.91;5115594;28;20282;-71
2023/06/09 01:11:57;;;;;;;9.67;9.17;;;;;;;-145.94;52.68;76056.13;5097177;28;20207;-70
2023/06/09 01:14:32;;;;;;;15.73;9.33;;;;;;;-145.94;52.62;76066.31;5097171;28;20178;-70
2023/06/09 01:17:13;;;;;;;9.53;9.10;;;;;;;-145.94;52.79;76062.22;5080395;28;20595;-70
2023/06/09 01:19:43;;;;;;;10.17;9.20;;;;;;;-145.94;52.72;76062.22;5115282;28;20200;-70
2023/06/09 01:23:08;;;;;;;10.13;9.53;;;;;;;-145.94;52.80;76064.25;5115776;28;20173;-70
2023/06/09 01:25:41;;;;;;;15.67;9.50;;;;;;;-145.94;53.10;76076.50;5013692;28;20196;-70
2023/06/09 01:28:11;;;;;;;12.17;9.73;;;;;;;-145.94;52.81;76074.47;5012599;28;20200;-70
2023/06/09 01:30:43;;;;;;;9.27;8.87;;;;;;;-145.94;52.96;76080.56;5052164;28;20212;-70
2023/06/09 01:33:12;;;;;;;9.60;9.07;;;;;;;-145.94;52.97;76088.72;5115584;28;20607;-70
2023/06/09 01:35:40;;;;;;;9.67;8.97;;;;;;;-145.94;53.14;76074.47;5114951;28;20192;-71
2023/06/09 01:38:07;;;;;;;11.13;10.17;;;;;;;-145.94;53.00;76082.63;5115095;28;20203;-70
2023/06/09 01:40:34;;;;;;;10.20;9.57;;;;;;;-145.94;53.06;76088.72;5096515;28;20193;-70
2023/06/09 01:43:03;;;;;;;9.87;9.27;;;;;;;-145.94;53.21;76092.81;5096430;28;20554;-70
2023/06/09 01:45:29;;;;;;;9.93;9.30;;;;;;;-145.94;53.58;76100.97;5114737;28;20185;-70
2023/06/09 01:47:56;;;;;;;9.80;8.83;;;;;;;-145.94;53.84;76103.00;5114980;28;20185;-70
2023/06/09 01:50:26;;;;;;;8.80;8.40;;;;;;;-145.94;53.45;76098.94;5096339;28;20217;-70
2023/06/09 01:53:14;;;;;;;10.30;9.60;;;;;;;-145.94;53.36;76103.00;5114567;28;20185;-70
2023/06/09 01:55:50;;;;;;;10.23;9.70;;;;;;;-145.94;53.81;76107.09;5114849;28;20196;-70
2023/06/09 01:58:33;;;;;;;10.73;9.93;;;;;;;-145.94;53.76;76107.09;5096220;28;20237;-70
2023/06/09 02:01:01;;;;;;;10.33;9.70;;;;;;;-145.94;53.62;76105.03;5096247;28;20188;-70
2023/06/09 02:03:31;;;;;;;10.80;9.80;;;;;;;-145.94;53.49;76111.16;5096029;28;20220;-70
2023/06/09 02:05:58;;;;;;;10.57;9.83;;;;;;;-145.94;53.63;76105.03;5114649;28;20184;-70
2023/06/09 02:08:29;;;;;;;10.40;9.60;;;;;;;-145.94;53.57;76115.25;5095938;28;20217;-70
2023/06/09 02:10:55;;;;;;;12.80;10.30;;;;;;;-145.94;53.58;76113.19;5096125;28;20189;-70
2023/06/09 02:13:22;;;;;;;11.40;8.47;;;;;;;-145.94;53.77;76119.31;5096118;28;20646;-70
2023/06/09 02:15:49;;;;;;;14.67;9.67;;;;;;;-145.94;53.65;76111.16;5096223;28;20197;-71
2023/06/09 02:18:20;;;;;;;7.77;7.57;;;;;;;-145.94;53.79;76121.34;5114212;28;20178;-70
2023/06/09 02:20:48;;;;;;;8.87;8.37;;;;;;;-145.94;53.88;76117.28;5114061;28;20635;-70
2023/06/09 02:23:18;;;;;;;9.73;8.97;;;;;;;-145.94;53.85;76123.41;5095693;28;20195;-70
2023/06/09 02:25:46;;;;;;;10.73;9.90;;;;;;;-145.94;53.82;76131.56;5095855;28;20246;-70
2023/06/09 02:28:13;;;;;;;8.80;8.33;;;;;;;-145.94;53.96;76131.56;5095659;28;20193;-70
2023/06/09 02:30:40;;;;;;;22.40;8.83;;;;;;;-145.94;54.08;76133.59;5095725;28;20200;-70
2023/06/09 02:33:07;;;;;;;15.67;9.77;;;;;;;-145.94;54.10;76135.63;5114169;28;20189;-71
2023/06/09 02:35:34;;;;;;;9.70;9.13;;;;;;;-145.94;54.08;76133.59;5095967;28;20247;-70
2023/06/09 02:38:07;;;;;;;10.70;9.70;;;;;;;-145.94;54.18;76141.75;5113427;28;20613;-70
2023/06/09 02:40:34;;;;;;;10.47;9.47;;;;;;;-145.94;54.19;76145.81;5095942;28;20238;-70
2023/06/09 02:43:01;;;;;;;10.20;9.30;;;;;;;-145.94;54.34;76151.94;5095559;28;20663;-70
2023/06/09 02:45:27;;;;;;;10.43;9.43;;;;;;;-145.94;54.27;76160.09;5113714;28;20216;-70
2023/06/09 02:47:54;;;;;;;9.13;8.83;;;;;;;-145.94;54.41;76164.16;5095491;28;20221;-70
2023/06/09 02:50:23;;;;;;;9.00;8.60;;;;;;;-145.94;54.50;76168.25;5095469;28;20580;-70
2023/06/09 02:52:53;;;;;;;10.03;9.33;;;;;;;-145.94;54.78;76170.28;5096015;28;20220;-70
2023/06/09 02:55:20;;;;;;;9.90;9.50;;;;;;;-145.94;55.04;76178.44;5095433;28;20246;-70
2023/06/09 02:57:48;;;;;;;11.57;10.67;;;;;;;-145.94;55.17;76194.75;5095610;28;20193;-70
2023/06/09 03:00:16;;;;;;;11.40;10.23;;;;;;;-145.94;54.92;76190.69;5095411;28;20271;-71
2023/06/09 03:02:46;;;;;;;11.30;10.20;;;;;;;-145.94;55.46;76194.75;5096260;28;20181;-70
2023/06/09 03:05:14;;;;;;;9.93;9.33;;;;;;;-145.94;54.99;76200.88;5095287;28;20228;-70
2023/06/09 03:07:40;;;;;;;10.23;9.23;;;;;;;-145.94;55.29;76215.13;5095322;28;20189;-70
2023/06/09 03:10:07;;;;;;;10.63;9.90;;;;;;;-145.94;55.75;76213.09;5095227;28;20208;-70
2023/06/09 03:12:39;;;;;;;10.57;9.93;;;;;;;-145.94;55.76;76219.22;5095486;28;20276;-70
2023/06/09 03:15:07;;;;;;;10.17;9.33;;;;;;;-145.94;56.02;76225.34;5095264;28;20282;-70
2023/06/09 03:17:34;;;;;;;11.40;9.93;;;;;;;-145.94;55.75;76229.41;5095792;28;20185;-69
2023/06/09 03:20:01;;;;;;;15.80;9.83;;;;;;;-145.94;55.86;76235.53;5095100;28;20251;-70
2023/06/09 03:22:29;;;;;;;12.10;10.47;;;;;;;-145.94;56.03;76235.53;5095219;28;20189;-70
2023/06/09 03:24:56;;;;;;;38.27;10.30;;;;;;;-145.94;55.65;76235.53;5095088;28;20287;-70
2023/06/09 03:27:23;;;;;;;13.87;9.80;;;;;;;-145.94;55.95;76243.69;5113304;28;20219;-70
2023/06/09 03:29:49;;;;;;;11.90;10.70;;;;;;;-145.94;55.80;76243.69;5095412;28;20627;-70
2023/06/09 03:32:16;;;;;;;16.53;11.67;;;;;;;-145.94;55.86;76239.59;5095164;28;20288;-71
2023/06/09 03:34:43;;;;;;;10.70;9.93;;;;;;;-145.94;56.18;76243.69;5095117;28;20185;-71
2023/06/09 03:37:13;;;;;;;9.77;9.27;;;;;;;-145.94;55.61;76245.72;5094991;28;20296;-71
2023/06/09 03:39:39;;;;;;;10.87;10.07;;;;;;;-145.94;55.72;76245.72;5095425;28;20217;-70
2023/06/09 03:42:07;;;;;;;10.90;10.13;;;;;;;-145.94;56.15;76251.84;5095312;28;20674;-71
2023/06/09 03:44:33;;;;;;;10.63;10.03;;;;;;;-145.94;56.32;76260.00;5113136;28;20675;-71
2023/06/09 03:47:00;;;;;;;11.37;9.73;;;;;;;-145.94;56.20;76262.03;5095025;28;20185;-72
2023/06/09 03:49:27;;;;;;;10.77;9.70;;;;;;;-145.94;56.57;76266.13;5096090;28;20217;-71
2023/06/09 03:51:53;;;;;;;10.30;9.90;;;;;;;-145.94;56.57;76272.22;5116995;28;20246;-71
2023/06/09 03:54:21;;;;;;;10.50;9.70;;;;;;;-145.94;56.67;76270.19;5098751;28;20187;-71
2023/06/09 03:56:47;;;;;;;10.63;10.00;;;;;;;-145.94;56.53;76266.13;5098680;28;20208;-71
2023/06/09 03:59:15;;;;;;;12.63;10.73;;;;;;;-145.94;56.46;76266.13;5098480;28;20220;-70
2023/06/09 04:01:42;;;;;;;16.83;10.77;;;;;;;-145.94;56.59;76272.22;5098607;28;20203;-71
2023/06/09 04:04:12;;;;;;;10.40;9.73;;;;;;;-145.94;56.78;76272.22;5098395;28;20213;-71
2023/06/09 04:06:45;;;;;;;10.77;10.00;;;;;;;-145.94;56.82;76272.22;5098414;28;20243;-70
2023/06/09 04:09:14;;;;;;;11.20;10.57;;;;;;;-145.94;56.77;76284.47;5098334;28;20212;-70
2023/06/09 04:11:41;;;;;;;10.53;9.60;;;;;;;-145.94;56.95;76284.47;5098321;28;20185;-70
2023/06/09 04:14:09;;;;;;;11.73;10.73;;;;;;;-145.94;57.03;76276.31;5081475;28;20188;-70
2023/06/09 04:16:36;;;;;;;10.70;10.00;;;;;;;-145.94;57.04;76278.34;5098219;28;20224;-70
2023/06/09 04:19:03;;;;;;;11.43;10.50;;;;;;;-145.94;57.15;76280.38;5098090;28;20205;-70
2023/06/09 04:21:29;;;;;;;11.07;10.13;;;;;;;-145.94;57.19;76276.31;5098095;28;20250;-70
2023/06/09 04:23:56;;;;;;;12.60;11.33;;;;;;;-145.94;57.08;76274.28;5098029;28;20189;-70
2023/06/09 04:26:23;;;;;;;12.50;11.60;;;;;;;-145.94;57.22;76280.38;5098064;28;20185;-70
2023/06/09 04:28:53;;;;;;;11.43;10.37;;;;;;;-145.94;57.19;76276.31;5097767;28;20219;-70
2023/06/09 04:31:23;;;;;;;11.80;10.73;;;;;;;-145.94;57.54;76274.28;5097975;28;20289;-70
2023/06/09 04:33:51;;;;;;;12.83;11.63;;;;;;;-145.94;57.18;76268.16;5097927;28;20276;-70
2023/06/09 04:36:18;;;;;;;14.07;11.77;;;;;;;-145.94;57.22;76266.13;5097842;28;20195;-70
2023/06/09 04:38:45;;;;;;;16.07;11.30;;;;;;;-145.94;56.69;76262.03;5116499;28;20243;-70
2023/06/09 04:41:12;;;;;;;11.63;10.83;;;;;;;-145.94;57.33;76257.97;5097752;28;20193;-70
2023/06/09 04:43:41;;;;;;;12.43;11.50;;;;;;;-145.94;57.12;76257.97;5097753;28;20193;-70
2023/06/09 04:46:12;;;;;;;13.27;12.43;;;;;;;-145.94;57.17;76251.84;5097642;28;20255;-70
2023/06/09 04:48:41;;;;;;;12.83;11.93;;;;;;;-145.94;56.96;76237.56;5115811;28;20717;-70
2023/06/09 04:51:07;;;;;;;12.00;11.27;;;;;;;-145.94;57.01;76229.41;5115858;28;20177;-70
2023/06/09 04:53:40;;;;;;;13.53;12.27;;;;;;;-145.94;56.93;76235.53;5097543;28;20234;-70
2023/06/09 04:56:08;;;;;;;12.60;11.60;;;;;;;-145.94;56.86;76227.38;5097479;28;20659;-70
2023/06/09 04:58:38;;;;;;;14.03;12.97;;;;;;;-145.94;56.69;76231.44;5097402;28;20352;-71
2023/06/09 05:01:04;;;;;;;17.00;13.70;;;;;;;-145.94;56.30;76213.09;5096653;28;20723;-70
2023/06/09 05:03:31;;;;;;;13.13;12.00;;;;;;;-145.94;56.46;76217.19;5097342;28;20204;-70
2023/06/09 05:05:57;;;;;;;14.83;13.40;;;;;;;-145.94;56.53;76215.13;5097237;28;20637;-70
2023/06/09 05:08:27;;;;;;;12.60;11.90;;;;;;;-145.94;56.18;76204.94;5097460;28;20303;-70
2023/06/09 05:10:54;;;;;;;14.97;12.60;;;;;;;-145.94;56.46;76202.91;5080726;28;20266;-70
2023/06/09 05:13:22;;;;;;;13.60;12.53;;;;;;;-145.94;56.25;76207.00;5097082;28;20655;-70
2023/06/09 05:15:49;;;;;;;14.30;13.03;;;;;;;-145.94;56.41;76202.91;5097119;28;20284;-70
2023/06/09 05:18:17;;;;;;;13.87;12.77;;;;;;;-145.94;56.05;76194.75;5096975;28;20190;-69
2023/06/09 05:20:44;;;;;;;15.60;14.30;;;;;;;-145.94;56.00;76194.75;5116061;28;20181;-70
2023/06/09 05:23:12;;;;;;;14.33;13.33;;;;;;;-145.94;55.92;76186.59;5096970;28;20201;-70
2023/06/09 05:25:38;;;;;;;18.90;13.47;;;;;;;-145.94;55.98;76184.56;5096796;28;20233;-70
2023/06/09 05:28:05;;;;;;;13.97;13.00;;;;;;;-145.94;55.81;76178.44;5096563;28;20201;-70
2023/06/09 05:30:31;;;;;;;14.53;13.43;;;;;;;-145.94;55.98;76180.47;5114972;28;20185;-70
2023/06/09 05:32:58;;;;;;;13.70;12.80;;;;;;;-145.94;56.01;76166.22;5096729;28;20201;-70
2023/06/09 05:35:25;;;;;;;15.90;14.33;;;;;;;-145.94;55.65;76156.00;5096647;28;20181;-71
2023/06/09 05:37:52;;;;;;;14.47;13.33;;;;;;;-145.94;55.40;76147.84;5097405;28;20241;-70
2023/06/09 05:40:22;;;;;;;14.57;13.57;;;;;;;-145.94;55.17;76143.78;5096787;28;20220;-70
2023/06/09 05:42:49;;;;;;;15.07;13.43;;;;;;;-145.94;55.36;76137.66;5115103;28;20189;-70
2023/06/09 05:45:16;;;;;;;14.97;13.80;;;;;;;-145.94;55.15;76121.34;5114737;28;20203;-70
2023/06/09 05:47:42;;;;;;;15.47;13.60;;;;;;;-145.94;54.72;76117.28;5114612;28;20196;-70
2023/06/09 05:50:09;;;;;;;16.93;15.37;;;;;;;-145.94;55.56;76117.28;5114742;28;20699;-70
2023/06/09 05:52:36;;;;;;;16.63;14.93;;;;;;;-145.94;55.05;76103.00;5114657;28;20227;-70
2023/06/09 05:55:04;;;;;;;16.93;14.67;;;;;;;-145.94;54.76;76111.16;5114838;28;20184;-70
2023/06/09 05:57:30;;;;;;;15.27;13.70;;;;;;;-145.94;54.86;76094.84;5115090;28;20186;-70
2023/06/09 05:59:57;;;;;;;16.27;14.60;;;;;;;-145.94;54.81;76082.63;5114420;28;20216;-70
2023/06/09 06:02:24;;;;;;;15.40;14.00;;;;;;;-145.94;54.18;76070.38;5114449;28;20191;-70
2023/06/09 06:04:51;;;;;;;17.77;15.97;;;;;;;-145.94;54.41;76060.19;5114313;28;20291;-70
2023/06/09 06:07:20;;;;;;;16.13;14.43;;;;;;;-145.94;54.34;76047.97;5114420;28;20592;-70
2023/06/09 06:09:46;;;;;;;16.77;15.03;;;;;;;-145.94;54.17;76035.72;5114650;28;20216;-70
2023/06/09 06:12:13;;;;;;;16.03;14.73;;;;;;;-145.94;53.91;76019.41;5113992;28;20206;-70
2023/06/09 06:14:39;;;;;;;16.83;15.43;;;;;;;-145.94;53.56;76005.16;5113636;28;20185;-70
2023/06/09 06:17:06;;;;;;;15.20;14.27;;;;;;;-145.94;53.26;75990.88;5114226;28;20192;-70
2023/06/09 06:19:32;;;;;;;15.93;14.20;;;;;;;-145.94;52.88;75974.56;5114432;28;20560;-70
2023/06/09 06:21:58;;;;;;;16.27;14.80;;;;;;;-145.94;52.20;75964.38;5114369;28;20558;-70
2023/06/09 06:24:25;;;;;;;14.50;12.97;;;;;;;-145.94;52.22;75950.09;5114059;28;20185;-70
2023/06/09 06:26:52;;;;;;;15.67;14.10;;;;;;;-145.94;51.79;75943.97;5114565;28;20644;-70
2023/06/09 06:29:18;;;;;;;17.10;14.23;;;;;;;-145.94;51.58;75925.63;5113815;28;20216;-70
2023/06/09 06:31:48;;;;;;;14.77;13.60;;;;;;;-145.94;50.99;75911.38;5113999;28;20601;-70
2023/06/09 06:34:14;;;;;;;15.53;14.33;;;;;;;-145.94;50.97;75907.28;5114063;28;20184;-70
2023/06/09 06:36:41;;;;;;;15.93;14.70;;;;;;;-145.94;50.79;75897.09;5113903;28;20602;-70
2023/06/09 06:39:08;;;;;;;17.27;15.27;;;;;;;-145.94;50.77;75882.81;5113787;28;20305;-70
2023/06/09 06:41:34;;;;;;;14.43;13.20;;;;;;;-145.94;50.54;75872.63;5113871;28;20185;-70
2023/06/09 06:44:01;;;;;;;14.43;13.40;;;;;;;-145.94;50.10;75860.41;5113824;28;20181;-70
2023/06/09 06:46:27;;;;;;;17.17;14.50;;;;;;;-145.94;50.19;75846.13;5113695;28;20201;-70
2023/06/09 06:48:53;;;;;;;16.57;15.20;;;;;;;-145.94;49.53;75840.00;5113662;28;20201;-70
2023/06/09 06:51:20;;;;;;;15.10;14.20;;;;;;;-145.94;49.43;75823.69;5113735;28;20192;-70
2023/06/09 06:53:46;;;;;;;17.03;15.53;;;;;;;-145.94;49.81;75811.47;5113739;28;20673;-70
2023/06/09 06:56:13;;;;;;;20.60;14.93;;;;;;;-145.94;49.34;75791.09;5114260;28;20169;-70
2023/06/09 06:58:40;;;;;;;16.70;15.47;;;;;;;-145.94;48.68;75787.00;5113568;28;20288;-69
2023/06/09 07:01:06;;;;;;;18.70;17.20;;;;;;;-145.94;48.28;75782.94;5114197;28;20193;-70
2023/06/09 07:03:35;;;;;;;16.03;14.93;;;;;;;-145.94;48.47;75772.72;5113606;28;20213;-70
2023/06/09 07:06:02;;;;;;;16.40;15.10;;;;;;;-145.94;48.71;75768.66;5113748;28;20201;-70
2023/06/09 07:08:29;;;;;;;16.20;14.57;;;;;;;-145.94;48.42;75764.56;5114062;28;20227;-70
2023/06/09 07:10:55;;;;;;;15.77;14.77;;;;;;;-145.94;48.10;75746.22;5113608;28;20204;-70
2023/06/09 07:13:22;;;;;;;15.77;14.40;;;;;;;-145.94;48.46;75738.06;5113606;28;20185;-70
2023/06/09 07:15:48;;;;;;;24.60;13.67;;;;;;;-145.94;48.50;75727.88;5113861;28;20647;-70
2023/06/09 07:18:15;;;;;;;12.37;11.67;;;;;;;-145.94;48.79;75711.56;5114008;28;20636;-70
2023/06/09 07:20:41;;;;;;;16.20;15.00;;;;;;;-145.94;47.42;75711.56;5113549;28;20213;-70
2023/06/09 07:23:08;;;;;;;16.60;15.40;;;;;;;-145.94;47.39;75707.50;5114156;28;20208;-70
2023/06/09 07:25:35;;;;;;;18.27;16.77;;;;;;;-145.94;47.33;75703.41;5098205;28;20216;-70
2023/06/09 07:28:02;;;;;;;16.83;15.27;;;;;;;-145.94;47.61;75701.38;5117784;28;20197;-70
2023/06/09 07:30:28;;;;;;;19.23;17.47;;;;;;;-145.94;46.88;75703.41;5117399;28;20677;-70
2023/06/09 07:32:55;;;;;;;18.67;16.77;;;;;;;-145.94;46.90;75709.53;5117406;28;20181;-70
2023/06/09 07:35:23;;;;;;;18.17;16.37;;;;;;;-145.94;46.89;75699.34;5117401;28;20272;-70
2023/06/09 07:37:50;;;;;;;15.20;13.67;;;;;;;-145.94;47.57;75693.22;5118095;28;20177;-70
2023/06/09 07:40:16;;;;;;;17.07;13.80;;;;;;;-145.94;47.24;75685.06;5117220;28;20709;-71
2023/06/09 07:42:48;;;;;;;18.90;15.30;;;;;;;-145.94;46.91;75664.69;5117474;28;20178;-70
2023/06/09 07:45:15;;;;;;;15.60;13.03;;;;;;;-145.94;46.81;75656.53;5117169;28;20205;-70
2023/06/09 07:47:42;;;;;;;14.90;13.50;;;;;;;-145.94;46.61;75648.38;5117102;28;20185;-70
2023/06/09 07:50:08;;;;;;;14.20;13.40;;;;;;;-145.94;46.61;75642.25;5116986;28;20709;-71
2023/06/09 07:52:39;;;;;;;12.47;11.80;;;;;;;-145.94;47.10;75634.09;5116988;28;20272;-70
2023/06/09 07:55:06;;;;;;;13.97;13.13;;;;;;;-145.94;46.57;75617.81;5117570;28;20169;-71
2023/06/09 07:57:40;;;;;;;15.30;14.10;;;;;;;-145.94;46.65;75605.56;5117181;28;20177;-70
2023/06/09 08:00:07;;;;;;;13.67;12.73;;;;;;;-145.94;45.92;75589.25;5116758;28;20254;-70
2023/06/09 08:02:41;;;;;;;15.23;13.87;;;;;;;-145.94;45.79;75589.25;5117177;28;20170;-71
2023/06/09 08:05:09;;;;;;;12.60;11.70;;;;;;;-145.94;46.31;75581.09;5117064;28;20197;-71
2023/06/09 08:07:36;;;;;;;15.13;13.87;;;;;;;-145.94;45.79;75564.78;5117061;28;20712;-70
2023/06/09 08:10:03;;;;;;;15.70;14.13;;;;;;;-145.94;45.65;75552.56;5116650;28;20201;-70
2023/06/09 08:12:30;;;;;;;13.87;13.03;;;;;;;-145.94;45.32;75536.25;5117074;28;20189;-70
2023/06/09 08:14:57;;;;;;;14.03;12.93;;;;;;;-145.94;44.63;75534.22;5116923;28;20530;-70
2023/06/09 08:17:23;;;;;;;13.37;12.53;;;;;;;-145.94;44.78;75519.94;5116846;28;20670;-70
2023/06/09 08:19:50;;;;;;;14.27;13.23;;;;;;;-145.94;43.94;75515.88;5116479;28;20737;-70
2023/06/09 08:22:16;;;;;;;12.00;11.47;;;;;;;-145.94;44.45;75509.75;5116472;28;20189;-71
2023/06/09 08:24:43;;;;;;;13.27;11.95;;;;;;;-145.94;44.27;75513.84;5117184;28;20181;-70
2023/06/09 08:27:09;;;;;;;13.60;12.50;;;;;;;-145.94;44.38;75505.69;5116760;28;20679;-71
2023/06/09 08:29:36;;;;;;;13.13;12.30;;;;;;;-145.94;44.24;75489.38;5116270;28;20209;-70
2023/06/09 08:32:03;;;;;;;12.38;11.75;;;;;;;-145.94;42.82;75464.91;5116426;28;20243;-70
2023/06/09 08:34:30;;;;;;;13.95;12.63;;;;;;;-145.94;42.03;75464.91;5116442;28;20189;-70
2023/06/09 08:36:57;;;;;;;13.30;12.40;;;;;;;-145.94;42.10;75454.72;5115016;28;20246;-70
2023/06/09 08:39:24;;;;;;;12.57;11.88;;;;;;;-145.94;42.37;75454.72;5116321;28;20205;-70
2023/06/09 08:41:52;;;;;;;11.35;10.95;;;;;;;-145.94;42.70;75440.44;5116287;28;20663;-70
2023/06/09 08:44:20;;;;;;;12.50;11.57;;;;;;;-145.94;41.65;75428.22;5116062;28;20197;-70
2023/06/09 08:46:48;;;;;;;12.43;11.40;;;;;;;-145.94;41.77;75420.06;5115877;28;20209;-71
2023/06/09 08:49:16;;;;;;;13.43;12.18;;;;;;;-145.94;41.95;75401.72;5116389;28;20213;-70
2023/06/09 08:51:44;;;;;;;11.52;11.02;;;;;;;-145.94;41.79;75387.44;5116168;28;20193;-70
2023/06/09 08:54:15;;;;;;;11.60;11.07;;;;;;;-145.94;41.43;75383.38;5116163;28;20173;-70
2023/06/09 08:56:42;;;;;;;12.43;11.40;;;;;;;-145.94;40.53;75369.09;5115746;28;20185;-70
2023/06/09 08:59:09;;;;;;;10.82;10.30;;;;;;;-145.94;39.88;75354.84;5115624;28;20570;-70
2023/06/09 09:01:36;;;;;;;12.73;11.82;;;;;;;-145.94;40.30;75358.91;5116225;28;20712;-70
2023/06/09 09:04:03;;;;;;;12.02;11.18;;;;;;;-145.94;40.70;75350.75;5115646;28;20189;-71
2023/06/09 09:06:33;;;;;;;11.02;10.27;;;;;;;-145.94;41.45;75344.63;5116154;28;20252;-71
2023/06/09 09:09:00;;;;;;;10.65;9.82;;;;;;;-145.94;39.28;75338.53;5115489;28;20572;-71
2023/06/09 09:11:27;;;;;;;10.63;9.98;;;;;;;-145.94;38.93;75328.34;5116052;28;20304;-70
2023/06/09 09:13:53;;;;;;;11.52;10.50;;;;;;;-145.94;38.51;75332.41;5115985;28;20185;-70
2023/06/09 09:16:19;;;;;;;10.40;9.85;;;;;;;-145.94;38.79;75342.59;5116021;28;20264;-70
2023/06/09 09:18:47;;;;;;;11.52;10.27;;;;;;;-145.94;38.90;75328.34;5115544;28;20197;-70
2023/06/09 09:21:21;;;;;;;9.40;8.82;;;;;;;-145.94;39.37;75322.22;5115336;28;20234;-71
2023/06/09 09:24:01;;;;;;;10.63;9.93;;;;;;;-145.94;38.74;75303.88;5115263;28;20195;-70
2023/06/09 09:26:29;;;;;;;10.32;9.77;;;;;;;-145.94;37.83;75273.28;5115452;28;20188;-70
2023/06/09 09:29:00;;;;;;;8.18;8.00;;;;;;;-145.94;37.91;75269.22;5114983;28;20217;-70
2023/06/09 09:31:33;;;;;;;9.23;8.80;;;;;;;-145.94;38.89;75248.84;5115623;28;20176;-70
2023/06/09 09:34:00;;;;;;;9.10;8.77;;;;;;;-145.94;38.21;75242.72;5115606;28;20189;-70
2023/06/09 09:36:27;;;;;;;10.73;10.23;;;;;;;-145.94;37.52;75238.66;5114996;28;20196;-71
2023/06/09 09:39:01;;;;;;;11.02;9.32;;;;;;;-145.94;37.61;75236.59;5115093;28;20220;-71
2023/06/09 09:41:29;;;;;;;8.85;8.65;;;;;;;-145.94;37.80;75222.34;5115188;28;20165;-71
2023/06/09 09:43:56;;;;;;;10.05;9.35;;;;;;;-145.94;37.56;75208.06;5114918;28;20356;-71
2023/06/09 09:46:23;;;;;;;8.63;7.97;;;;;;;-145.94;37.82;75204.00;5114727;28;20262;-71
2023/06/09 09:48:50;;;;;;;9.50;9.13;;;;;;;-145.94;37.76;75201.94;5114790;28;20209;-71
2023/06/09 09:51:20;;;;;;;9.70;8.90;;;;;;;-145.94;37.68;75185.66;5114670;28;20185;-71
2023/06/09 09:53:46;;;;;;;9.88;9.10;;;;;;;-145.94;37.72;75177.50;5114588;28;20185;-71
2023/06/09 09:56:23;;;;;;;9.25;8.40;;;;;;;-145.94;36.91;75159.16;5114639;28;20188;-71
2023/06/09 09:58:53;;;;;;;7.60;7.50;;;;;;;-145.94;36.50;75161.19;5115285;28;20212;-70
2023/06/09 10:01:24;;;;;;;9.20;8.80;;;;;;;-145.94;35.58;75165.25;5114671;28;20185;-71
2023/06/09 10:03:53;;;;;;;8.82;8.10;;;;;;;-145.94;36.75;75155.06;5114736;28;20235;-70
2023/06/09 10:06:27;;;;;;;9.05;8.50;;;;;;;-145.94;36.34;75144.88;5114550;28;20205;-71
2023/06/09 10:08:55;;;;;;;8.63;8.07;;;;;;;-145.94;36.38;75128.56;5114466;28;20213;-71
2023/06/09 10:11:29;;;;;;;9.45;8.93;;;;;;;-145.94;36.94;75128.56;5114566;28;20193;-71
2023/06/09 10:13:56;;;;;;;9.13;8.60;;;;;;;-145.94;37.28;75126.53;5114493;28;20177;-71
2023/06/09 10:16:23;;;;;;;8.38;7.93;;;;;;;-145.94;36.99;75104.13;5114201;28;20178;-71
2023/06/09 10:18:50;;;;;;;7.72;7.63;;;;;;;-145.94;36.05;75095.97;5095759;28;20205;-70
2023/06/09 10:21:18;;;;;;;9.30;8.75;;;;;;;-145.94;36.66;75081.69;5114408;28;20539;-71
2023/06/09 10:23:45;;;;;;;8.90;7.95;;;;;;;-145.94;35.66;75073.53;5114058;28;20217;-71
2023/06/09 10:26:13;;;;;;;8.32;8.13;;;;;;;-145.94;35.36;75073.53;5114244;28;20240;-71
2023/06/09 10:28:39;;;;;;;8.25;8.02;;;;;;;-145.94;35.30;75081.69;5114087;28;20217;-70
2023/06/09 10:31:11;;;;;;;8.35;8.05;;;;;;;-145.94;35.40;75085.78;5113906;28;20213;-71
2023/06/09 10:33:41;;;;;;;8.63;8.13;;;;;;;-145.94;35.69;75081.69;5114266;28;20192;-71
2023/06/09 10:36:10;;;;;;;8.95;8.25;;;;;;;-145.94;36.37;75079.66;5113995;28;20577;-71
2023/06/09 10:38:45;;;;;;;9.30;9.00;;;;;;;-145.94;36.25;75063.34;5114016;28;20216;-71
2023/06/09 10:41:18;;;;;;;8.40;7.90;;;;;;;-145.94;35.45;75059.28;5113850;28;20264;-71
2023/06/09 10:43:58;;;;;;;8.52;8.23;;;;;;;-145.94;35.44;75055.19;5114085;28;20182;-71
2023/06/09 10:46:42;;;;;;;7.60;7.40;;;;;;;-145.94;36.03;75061.31;5114038;28;20192;-71
2023/06/09 10:49:36;;;;;;;8.48;8.13;;;;;;;-145.94;35.36;75055.19;5113634;28;20359;-71
2023/06/09 10:52:04;;;;;;;9.65;9.25;;;;;;;-145.94;35.15;75053.16;5101049;28;20193;-70
2023/06/09 10:54:32;;;;;;;8.82;8.25;;;;;;;-145.94;35.66;75049.09;5113785;28;20305;-71
2023/06/09 10:57:01;;;;;;;8.23;7.97;;;;;;;-145.94;35.90;75032.78;5113715;28;20259;-71
2023/06/09 10:59:30;;;;;;;8.65;8.45;;;;;;;-145.94;36.05;75040.94;5116760;28;20205;-70
2023/06/09 11:01:59;;;;;;;9.07;8.48;;;;;;;-145.94;35.32;75034.81;5120475;28;20227;-71
2023/06/09 11:04:44;;;;;;;9.10;8.50;;;;;;;-145.94;34.81;75034.81;5120943;28;20550;-70
2023/06/09 11:07:16;;;;;;;8.20;7.82;;;;;;;-145.94;34.35;75067.44;5120685;28;20197;-70
2023/06/09 11:09:49;;;;;;;8.38;7.65;;;;;;;-145.94;34.81;75065.38;5120261;28;20232;-70
2023/06/09 11:12:28;;;;;;;8.30;7.70;;;;;;;-145.94;35.07;75063.34;5120400;28;20184;-71